West Point, Virginia
Current Conditions -  °F | °C
As of 11:15 AM on Thursday 30 Oct 2014 (Local Time) from KFYJ Reporting Station
Clear Clear  
Wind Chill: 62°   Ceiling: Unl
Heat Index: 62°   Visibility: 10mi
Dew Point: 43°   Wind: 5mph
Humidity: 50%   Direction: 360°N
Pressure: 30.08"   Gusts: NA
Location:  37.53°N, 76.8°W
Report Text: KFYJ 301515Z AUTO 36004KT 10SM CLR 17/06 A3008 RMK AO2 T01670063
Loading
Personal Weather Stations






























Interactive Weather Map New forecast layout! Learn more

10-Day Weather Forecast

Advertisements
Track Severe Weather on mobile